Lower Makefield, Pennsylvania
Current Conditions -  °F | °C
As of 10:53 AM on Thursday 23 Oct 2014 (Local Time) from KTTN Reporting Station
Light Rain Light Rain  
Wind Chill: 52°   Ceiling: 3700
Heat Index: 52°   Visibility: 10mi
Dew Point: 46°   Wind: 18mph
Humidity: 80%   Direction: 340°NNW
Pressure: 29.74"   Gusts: 26mph
Location:  40.1994°N, 74.8145°W
Report Text: KTTN 231453Z 34016G23KT 10SM -RA FEW017 BKN037 OVC080 11/08 A2974 RMK AO2 SLP065 P0002 60009 T01110078 50001
Loading
Personal Weather Stations






























Interactive Weather Map
Tropical Storm Tracking
New forecast layout! Learn more

10-Day Weather Forecast

Advertisements
Track Severe Weather on mobile